sensor_id;sensor_type;location;lat;lon;timestamp;pressure;altitude;pressure_sealevel;temperature;humidity
19108;BME280;9686;48.832;9.126;2023-05-01T00:00:59;98135.91;;;11.69;nan
19108;BME280;9686;48.832;9.126;2023-05-01T00:03:25;98138.59;;;11.63;nan
19108;BME280;9686;48.832;9.126;2023-05-01T00:05:50;98140.41;;;11.57;nan
19108;BME280;9686;48.832;9.126;2023-05-01T00:08:16;98132.56;;;11.57;nan
19108;BME280;9686;48.832;9.126;2023-05-01T00:10:41;98128.97;;;11.67;nan
19108;BME280;9686;48.832;9.126;2023-05-01T00:13:07;98128.09;;;11.66;nan
19108;BME280;9686;48.832;9.126;2023-05-01T00:15:34;98121.16;;;11.64;nan
19108;BME280;9686;48.832;9.126;2023-05-01T00:17:59;98118.56;;;11.64;nan
19108;BME280;9686;48.832;9.126;2023-05-01T00:20:28;98115.25;;;11.51;nan
19108;BME280;9686;48.832;9.126;2023-05-01T00:22:54;98112.56;;;11.57;nan
19108;BME280;9686;48.832;9.126;2023-05-01T00:25:19;98110.06;;;11.47;nan
19108;BME280;9686;48.832;9.126;2023-05-01T00:27:44;98113.47;;;11.55;nan
19108;BME280;9686;48.832;9.126;2023-05-01T00:30:10;98096.03;;;11.55;nan
19108;BME280;9686;48.832;9.126;2023-05-01T00:32:35;98101.22;;;11.60;nan
19108;BME280;9686;48.832;9.126;2023-05-01T00:35:01;98102.81;;;11.71;nan
19108;BME280;9686;48.832;9.126;2023-05-01T00:37:26;98096.09;;;11.52;nan
19108;BME280;9686;48.832;9.126;2023-05-01T00:39:52;98101.38;;;11.43;nan
19108;BME280;9686;48.832;9.126;2023-05-01T00:42:17;98098.84;;;11.38;nan
19108;BME280;9686;48.832;9.126;2023-05-01T00:44:42;98099.91;;;11.21;nan
19108;BME280;9686;48.832;9.126;2023-05-01T00:47:08;98096.25;;;11.37;nan
19108;BME280;9686;48.832;9.126;2023-05-01T00:49:33;98096.16;;;11.43;nan
19108;BME280;9686;48.832;9.126;2023-05-01T00:51:58;98093.53;;;11.44;nan
19108;BME280;9686;48.832;9.126;2023-05-01T00:54:24;98096.34;;;11.28;nan
19108;BME280;9686;48.832;9.126;2023-05-01T00:56:51;98085.06;;;11.26;nan
19108;BME280;9686;48.832;9.126;2023-05-01T00:59:17;98087.88;;;11.07;nan
19108;BME280;9686;48.832;9.126;2023-05-01T01:01:42;98081.84;;;11.02;nan
19108;BME280;9686;48.832;9.126;2023-05-01T01:04:08;98073.25;;;10.90;nan
19108;BME280;9686;48.832;9.126;2023-05-01T01:09:46;98078.53;;;10.84;nan
19108;BME280;9686;48.832;9.126;2023-05-01T01:12:27;98080.16;;;10.98;nan
19108;BME280;9686;48.832;9.126;2023-05-01T01:17:37;98075.59;;;11.16;nan
19108;BME280;9686;48.832;9.126;2023-05-01T01:23:00;98066.06;;;11.13;nan
19108;BME280;9686;48.832;9.126;2023-05-01T01:34:24;98055.66;;;11.10;nan
19108;BME280;9686;48.832;9.126;2023-05-01T01:37:10;98055.66;;;11.11;nan
19108;BME280;9686;48.832;9.126;2023-05-01T01:40:04;98048.59;;;11.21;nan
19108;BME280;9686;48.832;9.126;2023-05-01T01:42:36;98057.41;;;11.09;nan
19108;BME280;9686;48.832;9.126;2023-05-01T01:45:10;98057.34;;;11.14;nan
19108;BME280;9686;48.832;9.126;2023-05-01T01:47:40;98058.28;;;11.08;nan
19108;BME280;9686;48.832;9.126;2023-05-01T01:50:07;98058.19;;;11.19;nan
19108;BME280;9686;48.832;9.126;2023-05-01T01:52:34;98051.25;;;11.15;nan
19108;BME280;9686;48.832;9.126;2023-05-01T01:55:06;98045.06;;;11.25;nan
19108;BME280;9686;48.832;9.126;2023-05-01T01:57:35;98046.00;;;11.21;nan
19108;BME280;9686;48.832;9.126;2023-05-01T02:00:02;98044.19;;;11.26;nan
19108;BME280;9686;48.832;9.126;2023-05-01T02:02:34;98040.69;;;11.27;nan
19108;BME280;9686;48.832;9.126;2023-05-01T02:05:02;98040.75;;;11.23;nan
19108;BME280;9686;48.832;9.126;2023-05-01T02:07:29;98040.88;;;11.10;nan
19108;BME280;9686;48.832;9.126;2023-05-01T02:09:56;98045.31;;;11.04;nan
19108;BME280;9686;48.832;9.126;2023-05-01T02:12:23;98033.06;;;11.09;nan
19108;BME280;9686;48.832;9.126;2023-05-01T02:14:52;98037.31;;;11.16;nan
19108;BME280;9686;48.832;9.126;2023-05-01T02:17:19;98034.69;;;11.18;nan
19108;BME280;9686;48.832;9.126;2023-05-01T02:19:45;98022.53;;;11.17;nan
19108;BME280;9686;48.832;9.126;2023-05-01T02:22:11;98026.22;;;11.00;nan
19108;BME280;9686;48.832;9.126;2023-05-01T02:24:37;98023.56;;;11.03;nan
19108;BME280;9686;48.832;9.126;2023-05-01T02:27:09;98035.81;;;10.97;nan
19108;BME280;9686;48.832;9.126;2023-05-01T02:29:35;98028.91;;;10.91;nan
19108;BME280;9686;48.832;9.126;2023-05-01T02:32:00;98020.25;;;10.88;nan
19108;BME280;9686;48.832;9.126;2023-05-01T02:34:26;98020.38;;;10.77;nan
19108;BME280;9686;48.832;9.126;2023-05-01T02:36:52;98023.81;;;10.80;nan
19108;BME280;9686;48.832;9.126;2023-05-01T02:39:17;98022.09;;;10.78;nan
19108;BME280;9686;48.832;9.126;2023-05-01T02:41:44;98019.50;;;10.76;nan
19108;BME280;9686;48.832;9.126;2023-05-01T02:44:11;98010.81;;;10.76;nan
19108;BME280;9686;48.832;9.126;2023-05-01T02:46:41;98007.34;;;10.77;nan
19108;BME280;9686;48.832;9.126;2023-05-01T02:49:08;98008.03;;;10.94;nan
19108;BME280;9686;48.832;9.126;2023-05-01T02:51:34;98000.22;;;10.90;nan
19108;BME280;9686;48.832;9.126;2023-05-01T02:54:01;98002.81;;;10.91;nan
19108;BME280;9686;48.832;9.126;2023-05-01T02:56:27;98009.91;;;10.80;nan
19108;BME280;9686;48.832;9.126;2023-05-01T02:58:53;98013.22;;;10.93;nan
19108;BME280;9686;48.832;9.126;2023-05-01T03:01:19;98002.84;;;10.90;nan
19108;BME280;9686;48.832;9.126;2023-05-01T03:03:45;97997.53;;;11.00;nan
19108;BME280;9686;48.832;9.126;2023-05-01T03:06:10;98003.69;;;10.93;nan
19108;BME280;9686;48.832;9.126;2023-05-01T03:08:35;98000.16;;;10.97;nan
19108;BME280;9686;48.832;9.126;2023-05-01T03:11:05;98003.53;;;11.05;nan
19108;BME280;9686;48.832;9.126;2023-05-01T03:13:31;97997.41;;;11.09;nan
19108;BME280;9686;48.832;9.126;2023-05-01T03:15:56;97994.75;;;11.12;nan
19108;BME280;9686;48.832;9.126;2023-05-01T03:18:22;98002.66;;;11.06;nan
19108;BME280;9686;48.832;9.126;2023-05-01T03:20:54;97996.53;;;11.10;nan
19108;BME280;9686;48.832;9.126;2023-05-01T03:23:23;98000.78;;;11.21;nan
19108;BME280;9686;48.832;9.126;2023-05-01T03:25:49;97994.75;;;11.12;nan
19108;BME280;9686;48.832;9.126;2023-05-01T03:28:14;97988.81;;;11.03;nan
19108;BME280;9686;48.832;9.126;2023-05-01T03:30:40;97992.25;;;11.05;nan
19108;BME280;9686;48.832;9.126;2023-05-01T03:33:05;97997.59;;;10.94;nan
19108;BME280;9686;48.832;9.126;2023-05-01T03:35:31;97993.25;;;10.93;nan
19108;BME280;9686;48.832;9.126;2023-05-01T03:37:56;97996.69;;;10.98;nan
19108;BME280;9686;48.832;9.126;2023-05-01T03:40:21;97993.13;;;11.04;nan
19108;BME280;9686;48.832;9.126;2023-05-01T03:42:47;97996.63;;;11.01;nan
19108;BME280;9686;48.832;9.126;2023-05-01T03:45:13;97995.66;;;11.11;nan
19108;BME280;9686;48.832;9.126;2023-05-01T03:47:38;97989.69;;;11.00;nan
19108;BME280;9686;48.832;9.126;2023-05-01T03:50:04;97990.44;;;11.10;nan
19108;BME280;9686;48.832;9.126;2023-05-01T03:52:30;97986.88;;;11.20;nan
19108;BME280;9686;48.832;9.126;2023-05-01T03:54:55;97979.88;;;11.22;nan
19108;BME280;9686;48.832;9.126;2023-05-01T03:57:21;97981.53;;;11.29;nan
19108;BME280;9686;48.832;9.126;2023-05-01T03:59:47;97966.88;;;11.19;nan
19108;BME280;9686;48.832;9.126;2023-05-01T04:02:12;97964.25;;;11.21;nan
19108;BME280;9686;48.832;9.126;2023-05-01T04:04:38;97968.72;;;11.09;nan
19108;BME280;9686;48.832;9.126;2023-05-01T04:07:03;97972.19;;;11.10;nan
19108;BME280;9686;48.832;9.126;2023-05-01T04:09:29;97975.59;;;11.15;nan
19108;BME280;9686;48.832;9.126;2023-05-01T04:11:55;97967.91;;;11.06;nan
19108;BME280;9686;48.832;9.126;2023-05-01T04:14:20;97979.22;;;11.05;nan
19108;BME280;9686;48.832;9.126;2023-05-01T04:16:45;97980.97;;;11.03;nan
19108;BME280;9686;48.832;9.126;2023-05-01T04:19:11;97983.53;;;11.06;nan
19108;BME280;9686;48.832;9.126;2023-05-01T04:21:36;97977.34;;;11.15;nan
19108;BME280;9686;48.832;9.126;2023-05-01T04:24:01;97973.81;;;11.20;nan
19108;BME280;9686;48.832;9.126;2023-05-01T04:26:27;97972.75;;;11.35;nan
19108;BME280;9686;48.832;9.126;2023-05-01T04:28:52;97975.31;;;11.38;nan
19108;BME280;9686;48.832;9.126;2023-05-01T04:31:18;97973.56;;;11.38;nan
19108;BME280;9686;48.832;9.126;2023-05-01T04:33:43;97977.00;;;11.40;nan
19108;BME280;9686;48.832;9.126;2023-05-01T04:36:08;97980.56;;;11.35;nan
19108;BME280;9686;48.832;9.126;2023-05-01T04:38:34;97974.41;;;11.40;nan
19108;BME280;9686;48.832;9.126;2023-05-01T04:41:01;97978.88;;;11.32;nan
19108;BME280;9686;48.832;9.126;2023-05-01T04:43:26;97988.34;;;11.39;nan
19108;BME280;9686;48.832;9.126;2023-05-01T04:45:52;97975.16;;;11.50;nan
19108;BME280;9686;48.832;9.126;2023-05-01T04:48:18;97980.50;;;11.39;nan
19108;BME280;9686;48.832;9.126;2023-05-01T04:50:43;97980.50;;;11.39;nan
19108;BME280;9686;48.832;9.126;2023-05-01T04:53:08;97980.47;;;11.42;nan
19108;BME280;9686;48.832;9.126;2023-05-01T04:55:34;97978.72;;;11.46;nan
19108;BME280;9686;48.832;9.126;2023-05-01T04:57:59;97981.34;;;11.41;nan
19108;BME280;9686;48.832;9.126;2023-05-01T05:00:26;97983.97;;;11.40;nan
19108;BME280;9686;48.832;9.126;2023-05-01T05:02:52;97976.03;;;11.51;nan
19108;BME280;9686;48.832;9.126;2023-05-01T05:05:17;97977.84;;;11.42;nan
19108;BME280;9686;48.832;9.126;2023-05-01T05:07:42;97990.91;;;11.42;nan
19108;BME280;9686;48.832;9.126;2023-05-01T05:10:08;97988.16;;;11.55;nan
19108;BME280;9686;48.832;9.126;2023-05-01T05:12:33;97985.50;;;11.58;nan
19108;BME280;9686;48.832;9.126;2023-05-01T05:14:58;97982.88;;;11.58;nan
19108;BME280;9686;48.832;9.126;2023-05-01T05:17:23;97984.50;;;11.66;nan
19108;BME280;9686;48.832;9.126;2023-05-01T05:19:49;97992.25;;;11.74;nan
19108;BME280;9686;48.832;9.126;2023-05-01T05:22:15;97978.84;;;11.98;nan
19108;BME280;9686;48.832;9.126;2023-05-01T05:24:40;97977.41;;;11.79;nan
19108;BME280;9686;48.832;9.126;2023-05-01T05:27:05;97978.09;;;11.90;nan
19108;BME280;9686;48.832;9.126;2023-05-01T05:29:31;97978.22;;;11.83;nan
19108;BME280;9686;48.832;9.126;2023-05-01T05:31:57;97974.53;;;11.94;nan
19108;BME280;9686;48.832;9.126;2023-05-01T05:34:23;97978.13;;;11.87;nan
19108;BME280;9686;48.832;9.126;2023-05-01T05:36:49;97968.44;;;11.94;nan
19108;BME280;9686;48.832;9.126;2023-05-01T05:39:14;97967.88;;;11.73;nan
19108;BME280;9686;48.832;9.126;2023-05-01T05:41:39;97968.94;;;11.59;nan
19108;BME280;9686;48.832;9.126;2023-05-01T05:44:05;97978.41;;;11.66;nan
19108;BME280;9686;48.832;9.126;2023-05-01T05:46:30;97978.34;;;11.70;nan
19108;BME280;9686;48.832;9.126;2023-05-01T05:48:55;97978.38;;;11.69;nan
19108;BME280;9686;48.832;9.126;2023-05-01T05:51:21;97980.78;;;11.86;nan
19108;BME280;9686;48.832;9.126;2023-05-01T05:53:46;97978.25;;;11.81;nan
19108;BME280;9686;48.832;9.126;2023-05-01T05:56:11;97973.81;;;11.85;nan
19108;BME280;9686;48.832;9.126;2023-05-01T05:58:37;97978.25;;;11.80;nan
19108;BME280;9686;48.832;9.126;2023-05-01T06:01:02;97976.59;;;11.72;nan
19108;BME280;9686;48.832;9.126;2023-05-01T06:03:27;97982.69;;;11.73;nan
19108;BME280;9686;48.832;9.126;2023-05-01T06:05:53;97979.13;;;11.80;nan
19108;BME280;9686;48.832;9.126;2023-05-01T06:08:18;97979.03;;;11.86;nan
19108;BME280;9686;48.832;9.126;2023-05-01T06:10:43;97988.59;;;11.86;nan
19108;BME280;9686;48.832;9.126;2023-05-01T06:13:09;97990.44;;;11.78;nan
19108;BME280;9686;48.832;9.126;2023-05-01T06:15:38;97986.09;;;11.80;nan
19108;BME280;9686;48.832;9.126;2023-05-01T06:18:04;97997.50;;;11.71;nan
19108;BME280;9686;48.832;9.126;2023-05-01T06:20:30;97990.53;;;11.73;nan
19108;BME280;9686;48.832;9.126;2023-05-01T06:22:56;97992.03;;;11.89;nan
19108;BME280;9686;48.832;9.126;2023-05-01T06:25:22;97983.38;;;11.86;nan
19108;BME280;9686;48.832;9.126;2023-05-01T06:27:50;97980.72;;;11.89;nan
19108;BME280;9686;48.832;9.126;2023-05-01T06:30:15;97985.84;;;11.98;nan
19108;BME280;9686;48.832;9.126;2023-05-01T06:32:44;97992.47;;;12.17;nan
19108;BME280;9686;48.832;9.126;2023-05-01T06:35:09;97989.19;;;12.06;nan
19108;BME280;9686;48.832;9.126;2023-05-01T06:37:34;97996.06;;;12.12;nan
19108;BME280;9686;48.832;9.126;2023-05-01T06:40:03;97987.22;;;12.19;nan
19108;BME280;9686;48.832;9.126;2023-05-01T06:42:28;97990.66;;;12.21;nan
19108;BME280;9686;48.832;9.126;2023-05-01T06:44:54;97994.97;;;12.26;nan
19108;BME280;9686;48.832;9.126;2023-05-01T06:47:19;97993.88;;;12.38;nan
19108;BME280;9686;48.832;9.126;2023-05-01T06:49:45;97981.53;;;12.46;nan
19108;BME280;9686;48.832;9.126;2023-05-01T06:52:11;97984.97;;;12.48;nan
19108;BME280;9686;48.832;9.126;2023-05-01T06:54:36;97989.31;;;12.51;nan
19108;BME280;9686;48.832;9.126;2023-05-01T06:57:01;97994.38;;;12.60;nan
19108;BME280;9686;48.832;9.126;2023-05-01T06:59:26;97998.69;;;12.62;nan
19108;BME280;9686;48.832;9.126;2023-05-01T07:01:52;98004.44;;;12.83;nan
19108;BME280;9686;48.832;9.126;2023-05-01T07:04:17;98001.94;;;12.77;nan
19108;BME280;9686;48.832;9.126;2023-05-01T07:06:42;97996.50;;;12.87;nan
19108;BME280;9686;48.832;9.126;2023-05-01T07:09:08;97990.34;;;12.90;nan
19108;BME280;9686;48.832;9.126;2023-05-01T07:11:33;97993.84;;;12.89;nan
19108;BME280;9686;48.832;9.126;2023-05-01T07:13:59;97992.84;;;12.96;nan
19108;BME280;9686;48.832;9.126;2023-05-01T07:16:25;97995.34;;;13.01;nan
19108;BME280;9686;48.832;9.126;2023-05-01T07:18:50;97997.88;;;13.07;nan
19108;BME280;9686;48.832;9.126;2023-05-01T07:21:15;97999.41;;;13.17;nan
19108;BME280;9686;48.832;9.126;2023-05-01T07:23:41;97991.38;;;13.29;nan
19108;BME280;9686;48.832;9.126;2023-05-01T07:26:06;97996.53;;;13.32;nan
19108;BME280;9686;48.832;9.126;2023-05-01T07:28:31;97996.41;;;13.38;nan
19108;BME280;9686;48.832;9.126;2023-05-01T07:30:57;97991.84;;;13.46;nan
19108;BME280;9686;48.832;9.126;2023-05-01T07:33:22;97989.97;;;13.53;nan
19108;BME280;9686;48.832;9.126;2023-05-01T07:35:50;97988.06;;;13.61;nan
19108;BME280;9686;48.832;9.126;2023-05-01T07:38:15;97985.44;;;13.61;nan
19108;BME280;9686;48.832;9.126;2023-05-01T07:40:41;97981.63;;;13.74;nan
19108;BME280;9686;48.832;9.126;2023-05-01T07:43:06;97976.22;;;13.83;nan
19108;BME280;9686;48.832;9.126;2023-05-01T07:45:35;97977.88;;;13.87;nan
19108;BME280;9686;48.832;9.126;2023-05-01T07:48:00;97974.88;;;14.03;nan
19108;BME280;9686;48.832;9.126;2023-05-01T07:50:26;97965.94;;;14.11;nan
19108;BME280;9686;48.832;9.126;2023-05-01T07:52:51;97966.72;;;14.15;nan
19108;BME280;9686;48.832;9.126;2023-05-01T07:55:16;97971.56;;;14.30;nan
19108;BME280;9686;48.832;9.126;2023-05-01T07:57:43;97963.72;;;14.30;nan
19108;BME280;9686;48.832;9.126;2023-05-01T08:00:09;97965.19;;;14.42;nan
19108;BME280;9686;48.832;9.126;2023-05-01T08:02:34;97964.47;;;14.35;nan
19108;BME280;9686;48.832;9.126;2023-05-01T08:05:00;97961.88;;;14.35;nan
19108;BME280;9686;48.832;9.126;2023-05-01T08:07:28;97962.28;;;14.18;nan
19108;BME280;9686;48.832;9.126;2023-05-01T08:09:53;97959.13;;;14.40;nan
19108;BME280;9686;48.832;9.126;2023-05-01T08:12:18;97959.56;;;14.22;nan
19108;BME280;9686;48.832;9.126;2023-05-01T08:14:43;97960.06;;;14.37;nan
19108;BME280;9686;48.832;9.126;2023-05-01T08:17:09;97961.88;;;14.35;nan
19108;BME280;9686;48.832;9.126;2023-05-01T08:19:34;97957.59;;;14.31;nan
19108;BME280;9686;48.832;9.126;2023-05-01T08:21:59;97957.69;;;14.27;nan
19108;BME280;9686;48.832;9.126;2023-05-01T08:24:25;97958.03;;;14.48;nan
19108;BME280;9686;48.832;9.126;2023-05-01T08:26:50;97967.63;;;14.49;nan
19108;BME280;9686;48.832;9.126;2023-05-01T08:29:15;97957.97;;;14.52;nan
19108;BME280;9686;48.832;9.126;2023-05-01T08:31:41;97957.41;;;14.73;nan
19108;BME280;9686;48.832;9.126;2023-05-01T08:34:07;97952.66;;;14.87;nan
19108;BME280;9686;48.832;9.126;2023-05-01T08:36:33;97952.31;;;14.99;nan
19108;BME280;9686;48.832;9.126;2023-05-01T08:38:58;97954.63;;;15.41;nan
19108;BME280;9686;48.832;9.126;2023-05-01T08:41:24;97948.78;;;15.61;nan
19108;BME280;9686;48.832;9.126;2023-05-01T08:43:51;97942.78;;;15.85;nan
19108;BME280;9686;48.832;9.126;2023-05-01T08:46:45;97944.13;;;15.70;nan
19108;BME280;9686;48.832;9.126;2023-05-01T08:49:15;97943.63;;;15.86;nan
19108;BME280;9686;48.832;9.126;2023-05-01T08:51:44;97942.56;;;15.65;nan
19108;BME280;9686;48.832;9.126;2023-05-01T08:54:11;97945.94;;;15.68;nan
19108;BME280;9686;48.832;9.126;2023-05-01T08:56:37;97940.84;;;15.64;nan
19108;BME280;9686;48.832;9.126;2023-05-01T08:59:03;97950.09;;;15.76;nan
19108;BME280;9686;48.832;9.126;2023-05-01T09:01:31;97935.31;;;15.99;nan
19108;BME280;9686;48.832;9.126;2023-05-01T09:03:57;97937.34;;;15.91;nan
19108;BME280;9686;48.832;9.126;2023-05-01T09:06:24;97952.34;;;15.88;nan
19108;BME280;9686;48.832;9.126;2023-05-01T09:08:52;97951.44;;;16.17;nan
19108;BME280;9686;48.832;9.126;2023-05-01T09:11:18;97941.06;;;16.37;nan
19108;BME280;9686;48.832;9.126;2023-05-01T09:13:44;97945.63;;;16.58;nan
19108;BME280;9686;48.832;9.126;2023-05-01T09:16:10;97958.28;;;16.47;nan
19108;BME280;9686;48.832;9.126;2023-05-01T09:18:35;97949.66;;;16.44;nan
19108;BME280;9686;48.832;9.126;2023-05-01T09:21:01;97953.19;;;16.43;nan
19108;BME280;9686;48.832;9.126;2023-05-01T09:23:27;97945.34;;;16.41;nan
19108;BME280;9686;48.832;9.126;2023-05-01T09:25:53;97955.63;;;16.49;nan
19108;BME280;9686;48.832;9.126;2023-05-01T09:28:41;97953.72;;;16.52;nan
19108;BME280;9686;48.832;9.126;2023-05-01T09:31:27;97950.19;;;16.80;nan
19108;BME280;9686;48.832;9.126;2023-05-01T09:33:54;97946.00;;;16.74;nan
19108;BME280;9686;48.832;9.126;2023-05-01T09:36:21;97948.63;;;16.74;nan
19108;BME280;9686;48.832;9.126;2023-05-01T09:38:47;97947.06;;;16.93;nan
19108;BME280;9686;48.832;9.126;2023-05-01T09:41:13;97949.47;;;17.00;nan
19108;BME280;9686;48.832;9.126;2023-05-01T09:43:38;97943.47;;;16.96;nan
19108;BME280;9686;48.832;9.126;2023-05-01T09:46:08;97941.22;;;17.09;nan
19108;BME280;9686;48.832;9.126;2023-05-01T09:48:35;97939.41;;;17.34;nan
19108;BME280;9686;48.832;9.126;2023-05-01T09:51:19;97942.31;;;17.03;nan
19108;BME280;9686;48.832;9.126;2023-05-01T09:53:44;97934.19;;;17.09;nan
19108;BME280;9686;48.832;9.126;2023-05-01T09:56:09;97936.72;;;17.12;nan
19108;BME280;9686;48.832;9.126;2023-05-01T09:58:35;97941.06;;;17.37;nan
19108;BME280;9686;48.832;9.126;2023-05-01T10:01:00;97936.59;;;17.15;nan
19108;BME280;9686;48.832;9.126;2023-05-01T10:03:25;97930.53;;;17.37;nan
19108;BME280;9686;48.832;9.126;2023-05-01T10:05:51;97938.84;;;17.49;nan
19108;BME280;9686;48.832;9.126;2023-05-01T10:08:16;97931.28;;;17.40;nan
19108;BME280;9686;48.832;9.126;2023-05-01T10:10:42;97939.81;;;17.23;nan
19108;BME280;9686;48.832;9.126;2023-05-01T10:13:15;97938.97;;;17.23;nan
19108;BME280;9686;48.832;9.126;2023-05-01T10:15:40;97942.91;;;17.35;nan
19108;BME280;9686;48.832;9.126;2023-05-01T10:18:09;97941.53;;;17.48;nan
19108;BME280;9686;48.832;9.126;2023-05-01T10:20:35;97945.59;;;17.56;nan
19108;BME280;9686;48.832;9.126;2023-05-01T10:23:01;97943.28;;;17.72;nan
19108;BME280;9686;48.832;9.126;2023-05-01T10:25:28;97943.56;;;17.63;nan
19108;BME280;9686;48.832;9.126;2023-05-01T10:27:54;97944.88;;;17.76;nan
19108;BME280;9686;48.832;9.126;2023-05-01T10:30:21;97943.22;;;17.96;nan
19108;BME280;9686;48.832;9.126;2023-05-01T10:32:46;97931.00;;;17.71;nan
19108;BME280;9686;48.832;9.126;2023-05-01T10:35:18;97939.75;;;17.94;nan
19108;BME280;9686;48.832;9.126;2023-05-01T10:38:01;97942.72;;;17.86;nan
19108;BME280;9686;48.832;9.126;2023-05-01T10:45:46;97932.78;;;18.14;nan
19108;BME280;9686;48.832;9.126;2023-05-01T10:48:12;97940.72;;;18.35;nan
19108;BME280;9686;48.832;9.126;2023-05-01T10:51:07;97937.00;;;18.18;nan
19108;BME280;9686;48.832;9.126;2023-05-01T10:53:40;97935.53;;;18.11;nan
19108;BME280;9686;48.832;9.126;2023-05-01T10:58:59;97933.13;;;18.69;nan
19108;BME280;9686;48.832;9.126;2023-05-01T11:01:33;97936.19;;;18.59;nan
19108;BME280;9686;48.832;9.126;2023-05-01T11:04:04;97936.31;;;18.77;nan
19108;BME280;9686;48.832;9.126;2023-05-01T11:06:32;97932.69;;;18.80;nan
19108;BME280;9686;48.832;9.126;2023-05-01T11:08:59;97933.75;;;18.76;nan
19108;BME280;9686;48.832;9.126;2023-05-01T11:13:57;97930.50;;;18.27;nan
19108;BME280;9686;48.832;9.126;2023-05-01T11:18:59;97915.94;;;18.59;nan
19108;BME280;9686;48.832;9.126;2023-05-01T11:21:31;97917.34;;;18.68;nan
19108;BME280;9686;48.832;9.126;2023-05-01T11:24:01;97917.56;;;18.63;nan
19108;BME280;9686;48.832;9.126;2023-05-01T11:26:28;97913.72;;;18.50;nan
19108;BME280;9686;48.832;9.126;2023-05-01T11:28:54;97910.50;;;18.64;nan
19108;BME280;9686;48.832;9.126;2023-05-01T11:31:21;97922.75;;;18.65;nan
19108;BME280;9686;48.832;9.126;2023-05-01T11:33:47;97921.72;;;18.47;nan
19108;BME280;9686;48.832;9.126;2023-05-01T11:36:12;97916.88;;;18.58;nan
19108;BME280;9686;48.832;9.126;2023-05-01T11:38:48;97917.41;;;18.66;nan
19108;BME280;9686;48.832;9.126;2023-05-01T11:41:18;97918.50;;;18.40;nan
19108;BME280;9686;48.832;9.126;2023-05-01T11:43:57;97924.91;;;18.35;nan
19108;BME280;9686;48.832;9.126;2023-05-01T11:46:27;97904.84;;;18.31;nan
19108;BME280;9686;48.832;9.126;2023-05-01T11:48:53;97911.50;;;18.39;nan
19108;BME280;9686;48.832;9.126;2023-05-01T11:51:20;97911.38;;;18.42;nan
19108;BME280;9686;48.832;9.126;2023-05-01T11:56:26;97910.56;;;18.40;nan
19108;BME280;9686;48.832;9.126;2023-05-01T11:58:53;97911.72;;;18.55;nan
19108;BME280;9686;48.832;9.126;2023-05-01T12:01:19;97908.66;;;18.44;nan
19108;BME280;9686;48.832;9.126;2023-05-01T12:03:44;97906.13;;;18.63;nan
19108;BME280;9686;48.832;9.126;2023-05-01T12:06:11;97909.97;;;18.76;nan
19108;BME280;9686;48.832;9.126;2023-05-01T12:08:42;97906.00;;;18.66;nan
19108;BME280;9686;48.832;9.126;2023-05-01T12:11:08;97905.28;;;18.83;nan
19108;BME280;9686;48.832;9.126;2023-05-01T12:13:34;97894.22;;;19.32;nan
19108;BME280;9686;48.832;9.126;2023-05-01T12:15:59;97898.91;;;19.07;nan
19108;BME280;9686;48.832;9.126;2023-05-01T12:18:25;97894.56;;;19.44;nan
19108;BME280;9686;48.832;9.126;2023-05-01T12:20:52;97893.34;;;19.32;nan
19108;BME280;9686;48.832;9.126;2023-05-01T12:23:19;97892.19;;;19.37;nan
19108;BME280;9686;48.832;9.126;2023-05-01T12:25:54;97897.78;;;19.31;nan
19108;BME280;9686;48.832;9.126;2023-05-01T12:28:19;97898.84;;;19.46;nan
19108;BME280;9686;48.832;9.126;2023-05-01T12:30:46;97895.75;;;19.57;nan
19108;BME280;9686;48.832;9.126;2023-05-01T12:33:16;97895.13;;;19.31;nan
19108;BME280;9686;48.832;9.126;2023-05-01T12:35:43;97897.34;;;19.40;nan
19108;BME280;9686;48.832;9.126;2023-05-01T12:38:13;97901.22;;;19.52;nan
19108;BME280;9686;48.832;9.126;2023-05-01T12:40:51;97896.34;;;19.43;nan
19108;BME280;9686;48.832;9.126;2023-05-01T12:43:19;97901.66;;;19.62;nan
19108;BME280;9686;48.832;9.126;2023-05-01T12:45:50;97900.56;;;19.85;nan
19108;BME280;9686;48.832;9.126;2023-05-01T12:48:17;97902.53;;;19.62;nan
19108;BME280;9686;48.832;9.126;2023-05-01T12:50:43;97907.91;;;19.40;nan
19108;BME280;9686;48.832;9.126;2023-05-01T12:53:09;97901.56;;;18.87;nan
19108;BME280;9686;48.832;9.126;2023-05-01T12:55:42;97910.03;;;18.74;nan
19108;BME280;9686;48.832;9.126;2023-05-01T12:58:09;97902.41;;;19.07;nan
19108;BME280;9686;48.832;9.126;2023-05-01T13:00:46;97903.41;;;19.24;nan
19108;BME280;9686;48.832;9.126;2023-05-01T13:03:12;97894.69;;;19.40;nan
19108;BME280;9686;48.832;9.126;2023-05-01T13:05:56;97895.16;;;19.69;nan
19108;BME280;9686;48.832;9.126;2023-05-01T13:08:33;97887.34;;;19.85;nan
19108;BME280;9686;48.832;9.126;2023-05-01T13:11:01;97887.50;;;19.82;nan
19108;BME280;9686;48.832;9.126;2023-05-01T13:13:34;97893.16;;;19.55;nan
19108;BME280;9686;48.832;9.126;2023-05-01T13:16:14;97889.75;;;19.53;nan
19108;BME280;9686;48.832;9.126;2023-05-01T13:18:47;97892.13;;;19.39;nan
19108;BME280;9686;48.832;9.126;2023-05-01T13:21:15;97889.19;;;19.07;nan
19108;BME280;9686;48.832;9.126;2023-05-01T13:23:51;97889.34;;;18.84;nan
19108;BME280;9686;48.832;9.126;2023-05-01T13:26:17;97901.19;;;18.75;nan
19108;BME280;9686;48.832;9.126;2023-05-01T13:28:43;97900.16;;;18.58;nan
19108;BME280;9686;48.832;9.126;2023-05-01T13:31:11;97905.59;;;18.12;nan
19108;BME280;9686;48.832;9.126;2023-05-01T13:33:38;97900.91;;;17.99;nan
19108;BME280;9686;48.832;9.126;2023-05-01T13:36:04;97904.66;;;17.71;nan
19108;BME280;9686;48.832;9.126;2023-05-01T13:38:32;97913.00;;;17.36;nan
19108;BME280;9686;48.832;9.126;2023-05-01T13:41:04;97915.53;;;16.92;nan
19108;BME280;9686;48.832;9.126;2023-05-01T13:43:30;97919.34;;;16.83;nan
19108;BME280;9686;48.832;9.126;2023-05-01T13:45:56;97930.16;;;16.76;nan
19108;BME280;9686;48.832;9.126;2023-05-01T13:48:22;97924.66;;;16.82;nan
19108;BME280;9686;48.832;9.126;2023-05-01T13:50:48;97917.31;;;16.67;nan
19108;BME280;9686;48.832;9.126;2023-05-01T13:53:13;97918.94;;;16.71;nan
19108;BME280;9686;48.832;9.126;2023-05-01T13:55:39;97913.19;;;16.58;nan
19108;BME280;9686;48.832;9.126;2023-05-01T13:58:04;97921.06;;;16.33;nan
19108;BME280;9686;48.832;9.126;2023-05-01T14:00:30;97925.47;;;16.32;nan
19108;BME280;9686;48.832;9.126;2023-05-01T14:02:55;97924.69;;;16.55;nan
19108;BME280;9686;48.832;9.126;2023-05-01T14:05:26;97926.94;;;16.68;nan